< < Back
Terminal Aerodrome Forecast


Current Version              Previous Versions:   1  2  3  4  5  6  7  8  9  

Terminal Aerodrome Forecast

676
FTUS42 KFFC 281720
TAFPDK
TAF
KPDK 281720Z 2818/2918 34005KT P6SM SKC
     FM282000 VRB03KT P6SM SKC
     FM290100 15003KT P6SM SKC
     FM291700 19007KT P6SM SCT120 BKN250=

Latest METAR

091
SAUS70 KWBC 291000 RRQ
MTRPDK
METAR KPDK 290953Z AUTO 00000KT 9SM CLR M01/M03 A3027 RMK AO2 SLP260
T10061028


USA.gov is the U.S. government's official web portal to all federal, state and local government web resources and services.